Florian, Minnesota
Current Conditions -  °F | °C
As of 1:15 PM on Friday 28 Nov 2014 (Local Time) from KTVF Reporting Station
Overcast Overcast  
Wind Chill:   Ceiling: 4700
Heat Index: 14°   Visibility: 10mi
Dew Point:   Wind: 9mph
Humidity: 79%   Direction: 110°ESE
Pressure: 29.86"   Gusts: NA
Location:  48.4566°N, 96.4523°W
Report Text: KTVF 281915Z AUTO 11008KT 10SM BKN047 OVC075 M10/M13 A2986 RMK AO1
Loading
Personal Weather Stations






























Interactive Weather Map New forecast layout! Learn more

10-Day Weather Forecast

Advertisements
Track Severe Weather on mobile